sensor_id;sensor_type;location;lat;lon;timestamp;temperature;humidity
28520;DHT22;15732;48.534;20.382;2023-07-13T00:00:35;21.30;99.90
28520;DHT22;15732;48.534;20.382;2023-07-13T00:03:03;21.30;99.90
28520;DHT22;15732;48.534;20.382;2023-07-13T00:05:30;21.40;99.90
28520;DHT22;15732;48.534;20.382;2023-07-13T00:07:58;21.40;99.90
28520;DHT22;15732;48.534;20.382;2023-07-13T00:10:25;21.40;99.90
28520;DHT22;15732;48.534;20.382;2023-07-13T00:12:53;21.40;99.90
28520;DHT22;15732;48.534;20.382;2023-07-13T00:15:26;21.40;99.90
28520;DHT22;15732;48.534;20.382;2023-07-13T00:17:54;21.40;99.90
28520;DHT22;15732;48.534;20.382;2023-07-13T00:20:22;21.40;99.90
28520;DHT22;15732;48.534;20.382;2023-07-13T00:22:50;21.30;99.90
28520;DHT22;15732;48.534;20.382;2023-07-13T00:25:19;21.20;99.90
28520;DHT22;15732;48.534;20.382;2023-07-13T00:27:47;21.20;99.90
28520;DHT22;15732;48.534;20.382;2023-07-13T00:30:18;21.10;99.90
28520;DHT22;15732;48.534;20.382;2023-07-13T00:32:45;20.90;99.90
28520;DHT22;15732;48.534;20.382;2023-07-13T00:35:14;20.90;99.90
28520;DHT22;15732;48.534;20.382;2023-07-13T00:37:41;20.90;99.90
28520;DHT22;15732;48.534;20.382;2023-07-13T00:40:17;20.80;99.90
28520;DHT22;15732;48.534;20.382;2023-07-13T00:42:48;20.80;99.90
28520;DHT22;15732;48.534;20.382;2023-07-13T00:47:44;20.80;99.90
28520;DHT22;15732;48.534;20.382;2023-07-13T00:50:13;20.70;99.90
28520;DHT22;15732;48.534;20.382;2023-07-13T00:52:47;20.60;99.90
28520;DHT22;15732;48.534;20.382;2023-07-13T00:55:15;20.50;99.90
28520;DHT22;15732;48.534;20.382;2023-07-13T00:57:43;20.50;99.90
28520;DHT22;15732;48.534;20.382;2023-07-13T01:00:12;20.50;99.90
28520;DHT22;15732;48.534;20.382;2023-07-13T01:02:42;20.60;99.90
28520;DHT22;15732;48.534;20.382;2023-07-13T01:05:19;20.70;99.90
28520;DHT22;15732;48.534;20.382;2023-07-13T01:07:48;20.70;99.90
28520;DHT22;15732;48.534;20.382;2023-07-13T01:10:16;20.80;99.90
28520;DHT22;15732;48.534;20.382;2023-07-13T01:12:47;20.90;99.90
28520;DHT22;15732;48.534;20.382;2023-07-13T01:15:51;21.00;99.90
28520;DHT22;15732;48.534;20.382;2023-07-13T01:18:25;21.10;99.90
28520;DHT22;15732;48.534;20.382;2023-07-13T01:21:00;21.20;99.90
28520;DHT22;15732;48.534;20.382;2023-07-13T01:23:28;21.20;99.90
28520;DHT22;15732;48.534;20.382;2023-07-13T01:25:56;21.10;99.90
28520;DHT22;15732;48.534;20.382;2023-07-13T01:28:24;21.10;99.90
28520;DHT22;15732;48.534;20.382;2023-07-13T01:30:55;21.00;99.90
28520;DHT22;15732;48.534;20.382;2023-07-13T01:33:22;21.00;99.90
28520;DHT22;15732;48.534;20.382;2023-07-13T01:35:49;20.80;99.90
28520;DHT22;15732;48.534;20.382;2023-07-13T01:38:20;20.80;99.90
28520;DHT22;15732;48.534;20.382;2023-07-13T01:40:48;20.70;99.90
28520;DHT22;15732;48.534;20.382;2023-07-13T01:43:19;20.70;99.90
28520;DHT22;15732;48.534;20.382;2023-07-13T01:45:46;20.70;99.90
28520;DHT22;15732;48.534;20.382;2023-07-13T01:48:18;20.70;99.90
28520;DHT22;15732;48.534;20.382;2023-07-13T01:50:47;20.80;99.90
28520;DHT22;15732;48.534;20.382;2023-07-13T01:53:19;20.90;99.90
28520;DHT22;15732;48.534;20.382;2023-07-13T01:55:47;20.90;99.90
28520;DHT22;15732;48.534;20.382;2023-07-13T01:58:14;21.00;99.90
28520;DHT22;15732;48.534;20.382;2023-07-13T02:00:41;21.00;99.90
28520;DHT22;15732;48.534;20.382;2023-07-13T02:03:12;21.10;99.90
28520;DHT22;15732;48.534;20.382;2023-07-13T02:05:45;21.10;99.90
28520;DHT22;15732;48.534;20.382;2023-07-13T02:08:15;21.10;99.90
28520;DHT22;15732;48.534;20.382;2023-07-13T02:10:47;21.20;99.90
28520;DHT22;15732;48.534;20.382;2023-07-13T02:13:14;21.20;99.90
28520;DHT22;15732;48.534;20.382;2023-07-13T02:15:46;21.10;99.90
28520;DHT22;15732;48.534;20.382;2023-07-13T02:18:13;21.10;99.90
28520;DHT22;15732;48.534;20.382;2023-07-13T02:20:44;21.20;99.90
28520;DHT22;15732;48.534;20.382;2023-07-13T02:23:11;21.20;99.90
28520;DHT22;15732;48.534;20.382;2023-07-13T02:25:38;21.10;99.90
28520;DHT22;15732;48.534;20.382;2023-07-13T02:28:06;21.20;99.90
28520;DHT22;15732;48.534;20.382;2023-07-13T02:30:34;21.20;99.90
28520;DHT22;15732;48.534;20.382;2023-07-13T02:33:01;21.20;99.90
28520;DHT22;15732;48.534;20.382;2023-07-13T02:35:29;21.20;99.90
28520;DHT22;15732;48.534;20.382;2023-07-13T02:38:00;21.20;99.90
28520;DHT22;15732;48.534;20.382;2023-07-13T02:40:31;21.20;99.90
28520;DHT22;15732;48.534;20.382;2023-07-13T02:43:02;21.20;99.90
28520;DHT22;15732;48.534;20.382;2023-07-13T02:45:30;21.10;99.90
28520;DHT22;15732;48.534;20.382;2023-07-13T02:47:57;21.00;99.90
28520;DHT22;15732;48.534;20.382;2023-07-13T02:50:28;20.90;99.90
28520;DHT22;15732;48.534;20.382;2023-07-13T02:52:55;20.80;99.90
28520;DHT22;15732;48.534;20.382;2023-07-13T02:55:23;20.80;99.90
28520;DHT22;15732;48.534;20.382;2023-07-13T02:57:50;20.80;99.90
28520;DHT22;15732;48.534;20.382;2023-07-13T03:00:24;20.80;99.90
28520;DHT22;15732;48.534;20.382;2023-07-13T03:02:51;20.80;99.90
28520;DHT22;15732;48.534;20.382;2023-07-13T03:05:19;20.80;99.90
28520;DHT22;15732;48.534;20.382;2023-07-13T03:07:46;20.80;99.90
28520;DHT22;15732;48.534;20.382;2023-07-13T03:10:14;20.80;99.90
28520;DHT22;15732;48.534;20.382;2023-07-13T03:12:41;20.80;99.90
28520;DHT22;15732;48.534;20.382;2023-07-13T03:15:09;20.70;99.90
28520;DHT22;15732;48.534;20.382;2023-07-13T03:17:36;20.70;99.90
28520;DHT22;15732;48.534;20.382;2023-07-13T03:20:05;20.60;99.90
28520;DHT22;15732;48.534;20.382;2023-07-13T03:22:34;20.50;99.90
28520;DHT22;15732;48.534;20.382;2023-07-13T03:25:01;20.50;99.90
28520;DHT22;15732;48.534;20.382;2023-07-13T03:27:28;20.50;99.90
28520;DHT22;15732;48.534;20.382;2023-07-13T03:29:55;20.40;99.90
28520;DHT22;15732;48.534;20.382;2023-07-13T03:32:23;20.40;99.90
28520;DHT22;15732;48.534;20.382;2023-07-13T03:34:50;20.40;99.90
28520;DHT22;15732;48.534;20.382;2023-07-13T03:37:17;20.40;99.90
28520;DHT22;15732;48.534;20.382;2023-07-13T03:39:46;20.40;99.90
28520;DHT22;15732;48.534;20.382;2023-07-13T03:42:14;20.50;99.90
28520;DHT22;15732;48.534;20.382;2023-07-13T03:44:41;20.60;99.90
28520;DHT22;15732;48.534;20.382;2023-07-13T03:47:08;20.60;99.90
28520;DHT22;15732;48.534;20.382;2023-07-13T03:49:36;20.60;99.90
28520;DHT22;15732;48.534;20.382;2023-07-13T03:52:04;20.60;99.90
28520;DHT22;15732;48.534;20.382;2023-07-13T03:54:32;20.50;99.90
28520;DHT22;15732;48.534;20.382;2023-07-13T03:57:00;20.50;99.90
28520;DHT22;15732;48.534;20.382;2023-07-13T03:59:31;20.50;99.90
28520;DHT22;15732;48.534;20.382;2023-07-13T04:02:02;20.50;99.90
28520;DHT22;15732;48.534;20.382;2023-07-13T04:04:31;20.40;99.90
28520;DHT22;15732;48.534;20.382;2023-07-13T04:06:59;20.40;99.90
28520;DHT22;15732;48.534;20.382;2023-07-13T04:09:26;20.40;99.90
28520;DHT22;15732;48.534;20.382;2023-07-13T04:11:53;20.40;99.90
28520;DHT22;15732;48.534;20.382;2023-07-13T04:14:24;20.50;99.90
28520;DHT22;15732;48.534;20.382;2023-07-13T04:16:56;20.50;99.90
28520;DHT22;15732;48.534;20.382;2023-07-13T04:19:24;20.70;99.90
28520;DHT22;15732;48.534;20.382;2023-07-13T04:21:51;20.80;99.90
28520;DHT22;15732;48.534;20.382;2023-07-13T04:24:22;20.90;99.90
28520;DHT22;15732;48.534;20.382;2023-07-13T04:26:50;21.10;99.90
28520;DHT22;15732;48.534;20.382;2023-07-13T04:29:21;21.20;99.90
28520;DHT22;15732;48.534;20.382;2023-07-13T04:31:48;21.30;99.90
28520;DHT22;15732;48.534;20.382;2023-07-13T04:34:15;21.40;99.90
28520;DHT22;15732;48.534;20.382;2023-07-13T04:36:43;21.40;99.90
28520;DHT22;15732;48.534;20.382;2023-07-13T04:39:14;21.40;99.90
28520;DHT22;15732;48.534;20.382;2023-07-13T04:41:41;21.40;99.90
28520;DHT22;15732;48.534;20.382;2023-07-13T04:44:13;21.40;99.90
28520;DHT22;15732;48.534;20.382;2023-07-13T04:46:44;21.40;99.90
28520;DHT22;15732;48.534;20.382;2023-07-13T04:49:15;21.40;99.90
28520;DHT22;15732;48.534;20.382;2023-07-13T04:51:47;21.40;99.90
28520;DHT22;15732;48.534;20.382;2023-07-13T04:54:14;21.40;99.90
28520;DHT22;15732;48.534;20.382;2023-07-13T04:56:43;21.40;99.90
28520;DHT22;15732;48.534;20.382;2023-07-13T04:59:10;21.40;99.90
28520;DHT22;15732;48.534;20.382;2023-07-13T05:01:37;21.50;99.90
28520;DHT22;15732;48.534;20.382;2023-07-13T05:04:05;21.60;99.90
28520;DHT22;15732;48.534;20.382;2023-07-13T05:06:33;21.70;99.90
28520;DHT22;15732;48.534;20.382;2023-07-13T05:09:04;21.70;99.90
28520;DHT22;15732;48.534;20.382;2023-07-13T05:11:32;21.80;99.90
28520;DHT22;15732;48.534;20.382;2023-07-13T05:14:04;21.80;99.90
28520;DHT22;15732;48.534;20.382;2023-07-13T05:16:35;21.90;99.90
28520;DHT22;15732;48.534;20.382;2023-07-13T05:19:02;22.00;99.90
28520;DHT22;15732;48.534;20.382;2023-07-13T05:21:34;22.10;99.90
28520;DHT22;15732;48.534;20.382;2023-07-13T05:24:01;22.10;99.90
28520;DHT22;15732;48.534;20.382;2023-07-13T05:26:28;22.10;99.90
28520;DHT22;15732;48.534;20.382;2023-07-13T05:28:55;22.10;99.90
28520;DHT22;15732;48.534;20.382;2023-07-13T05:31:27;22.10;99.90
28520;DHT22;15732;48.534;20.382;2023-07-13T05:33:54;22.10;99.90
28520;DHT22;15732;48.534;20.382;2023-07-13T05:36:22;22.10;99.90
28520;DHT22;15732;48.534;20.382;2023-07-13T05:38:53;22.10;99.90
28520;DHT22;15732;48.534;20.382;2023-07-13T05:41:20;22.10;99.90
28520;DHT22;15732;48.534;20.382;2023-07-13T05:43:51;22.10;99.90
28520;DHT22;15732;48.534;20.382;2023-07-13T05:46:18;22.10;99.90
28520;DHT22;15732;48.534;20.382;2023-07-13T05:48:50;22.20;99.90
28520;DHT22;15732;48.534;20.382;2023-07-13T05:51:17;22.20;99.90
28520;DHT22;15732;48.534;20.382;2023-07-13T05:53:44;22.30;99.90
28520;DHT22;15732;48.534;20.382;2023-07-13T05:56:11;22.40;99.90
28520;DHT22;15732;48.534;20.382;2023-07-13T05:58:39;22.40;99.90
28520;DHT22;15732;48.534;20.382;2023-07-13T06:01:13;22.40;99.90
28520;DHT22;15732;48.534;20.382;2023-07-13T06:03:44;22.50;99.90
28520;DHT22;15732;48.534;20.382;2023-07-13T06:06:16;22.50;99.90
28520;DHT22;15732;48.534;20.382;2023-07-13T06:08:43;22.50;99.90
28520;DHT22;15732;48.534;20.382;2023-07-13T06:11:15;22.50;99.90
28520;DHT22;15732;48.534;20.382;2023-07-13T06:13:43;22.50;99.90
28520;DHT22;15732;48.534;20.382;2023-07-13T06:16:10;22.50;99.90
28520;DHT22;15732;48.534;20.382;2023-07-13T06:18:39;22.50;99.90
28520;DHT22;15732;48.534;20.382;2023-07-13T06:21:08;22.50;99.90
28520;DHT22;15732;48.534;20.382;2023-07-13T06:23:38;22.50;99.90
28520;DHT22;15732;48.534;20.382;2023-07-13T06:26:06;22.60;99.90
28520;DHT22;15732;48.534;20.382;2023-07-13T06:28:37;22.60;99.90
28520;DHT22;15732;48.534;20.382;2023-07-13T06:31:10;22.60;99.90
28520;DHT22;15732;48.534;20.382;2023-07-13T06:33:37;22.60;99.90
28520;DHT22;15732;48.534;20.382;2023-07-13T06:36:06;22.60;99.90
28520;DHT22;15732;48.534;20.382;2023-07-13T06:38:37;22.60;99.90
28520;DHT22;15732;48.534;20.382;2023-07-13T06:41:06;22.70;99.90
28520;DHT22;15732;48.534;20.382;2023-07-13T06:43:37;22.70;99.90
28520;DHT22;15732;48.534;20.382;2023-07-13T06:46:05;22.70;99.90
28520;DHT22;15732;48.534;20.382;2023-07-13T06:48:35;22.70;99.90
28520;DHT22;15732;48.534;20.382;2023-07-13T06:51:03;22.70;99.90
28520;DHT22;15732;48.534;20.382;2023-07-13T06:53:30;22.70;99.90
28520;DHT22;15732;48.534;20.382;2023-07-13T06:56:02;22.70;99.90
28520;DHT22;15732;48.534;20.382;2023-07-13T06:58:30;22.70;99.90
28520;DHT22;15732;48.534;20.382;2023-07-13T07:00:57;22.70;99.90
28520;DHT22;15732;48.534;20.382;2023-07-13T07:03:24;22.70;99.90
28520;DHT22;15732;48.534;20.382;2023-07-13T07:05:51;22.70;99.90
28520;DHT22;15732;48.534;20.382;2023-07-13T07:08:22;22.70;99.90
28520;DHT22;15732;48.534;20.382;2023-07-13T07:10:50;22.70;99.90
28520;DHT22;15732;48.534;20.382;2023-07-13T07:13:20;22.70;99.90
28520;DHT22;15732;48.534;20.382;2023-07-13T07:15:47;22.60;99.90
28520;DHT22;15732;48.534;20.382;2023-07-13T07:18:16;22.60;99.90
28520;DHT22;15732;48.534;20.382;2023-07-13T07:20:44;22.60;99.90
28520;DHT22;15732;48.534;20.382;2023-07-13T07:23:11;22.60;99.90
28520;DHT22;15732;48.534;20.382;2023-07-13T07:25:38;22.60;99.90
28520;DHT22;15732;48.534;20.382;2023-07-13T07:28:08;22.60;99.90
28520;DHT22;15732;48.534;20.382;2023-07-13T07:30:42;22.60;99.90
28520;DHT22;15732;48.534;20.382;2023-07-13T07:33:09;22.60;99.90
28520;DHT22;15732;48.534;20.382;2023-07-13T07:35:40;22.70;99.90
28520;DHT22;15732;48.534;20.382;2023-07-13T07:38:12;22.60;99.90
28520;DHT22;15732;48.534;20.382;2023-07-13T07:40:43;22.60;99.90
28520;DHT22;15732;48.534;20.382;2023-07-13T07:43:14;22.60;99.90
28520;DHT22;15732;48.534;20.382;2023-07-13T07:45:44;22.60;99.90
28520;DHT22;15732;48.534;20.382;2023-07-13T07:48:15;22.60;99.90
28520;DHT22;15732;48.534;20.382;2023-07-13T07:50:47;22.60;99.90
28520;DHT22;15732;48.534;20.382;2023-07-13T07:53:20;22.60;99.90
28520;DHT22;15732;48.534;20.382;2023-07-13T07:55:48;22.60;99.90
28520;DHT22;15732;48.534;20.382;2023-07-13T07:58:20;22.60;99.90
28520;DHT22;15732;48.534;20.382;2023-07-13T08:00:51;22.60;99.90
28520;DHT22;15732;48.534;20.382;2023-07-13T08:03:18;22.60;99.90
28520;DHT22;15732;48.534;20.382;2023-07-13T08:05:46;22.60;99.90
28520;DHT22;15732;48.534;20.382;2023-07-13T08:08:17;22.50;99.90
28520;DHT22;15732;48.534;20.382;2023-07-13T08:10:48;22.50;99.90
28520;DHT22;15732;48.534;20.382;2023-07-13T08:13:19;22.50;99.90
28520;DHT22;15732;48.534;20.382;2023-07-13T08:15:46;22.50;99.90
28520;DHT22;15732;48.534;20.382;2023-07-13T08:18:19;22.50;99.90
28520;DHT22;15732;48.534;20.382;2023-07-13T08:20:46;22.50;99.90
28520;DHT22;15732;48.534;20.382;2023-07-13T08:23:18;22.40;99.90
28520;DHT22;15732;48.534;20.382;2023-07-13T08:25:53;22.40;99.90
28520;DHT22;15732;48.534;20.382;2023-07-13T08:28:37;22.30;99.90
28520;DHT22;15732;48.534;20.382;2023-07-13T08:31:09;22.20;99.90
28520;DHT22;15732;48.534;20.382;2023-07-13T08:33:41;22.10;99.90
28520;DHT22;15732;48.534;20.382;2023-07-13T08:36:08;22.00;99.90
28520;DHT22;15732;48.534;20.382;2023-07-13T08:38:36;22.00;99.90
28520;DHT22;15732;48.534;20.382;2023-07-13T08:41:16;21.90;99.90
28520;DHT22;15732;48.534;20.382;2023-07-13T08:43:51;21.90;99.90
28520;DHT22;15732;48.534;20.382;2023-07-13T08:46:28;22.00;99.90
28520;DHT22;15732;48.534;20.382;2023-07-13T08:49:07;22.10;99.90
28520;DHT22;15732;48.534;20.382;2023-07-13T08:54:14;22.20;99.90
28520;DHT22;15732;48.534;20.382;2023-07-13T08:56:44;22.20;99.90
28520;DHT22;15732;48.534;20.382;2023-07-13T08:59:22;22.40;99.90
28520;DHT22;15732;48.534;20.382;2023-07-13T09:05:02;22.50;99.90
28520;DHT22;15732;48.534;20.382;2023-07-13T09:10:23;22.70;99.90
28520;DHT22;15732;48.534;20.382;2023-07-13T09:15:43;23.00;99.90
28520;DHT22;15732;48.534;20.382;2023-07-13T09:18:25;23.10;99.90
28520;DHT22;15732;48.534;20.382;2023-07-13T09:21:13;23.30;99.90
28520;DHT22;15732;48.534;20.382;2023-07-13T09:23:41;23.30;99.90
28520;DHT22;15732;48.534;20.382;2023-07-13T09:26:16;23.40;99.90
28520;DHT22;15732;48.534;20.382;2023-07-13T09:28:58;23.60;99.90
28520;DHT22;15732;48.534;20.382;2023-07-13T09:31:35;23.70;99.90
28520;DHT22;15732;48.534;20.382;2023-07-13T09:34:09;23.90;99.90
28520;DHT22;15732;48.534;20.382;2023-07-13T09:36:36;24.10;99.90
28520;DHT22;15732;48.534;20.382;2023-07-13T09:39:22;24.30;99.90
28520;DHT22;15732;48.534;20.382;2023-07-13T09:42:17;24.50;99.90
28520;DHT22;15732;48.534;20.382;2023-07-13T09:44:58;24.70;99.90
28520;DHT22;15732;48.534;20.382;2023-07-13T09:47:37;24.80;99.90
28520;DHT22;15732;48.534;20.382;2023-07-13T09:50:08;25.00;99.90
28520;DHT22;15732;48.534;20.382;2023-07-13T09:52:47;25.00;99.90
28520;DHT22;15732;48.534;20.382;2023-07-13T09:55:25;25.10;99.90
28520;DHT22;15732;48.534;20.382;2023-07-13T09:57:52;25.10;99.90
28520;DHT22;15732;48.534;20.382;2023-07-13T10:00:39;25.00;99.90
28520;DHT22;15732;48.534;20.382;2023-07-13T10:03:31;25.00;99.90
28520;DHT22;15732;48.534;20.382;2023-07-13T10:06:18;25.00;99.90
28520;DHT22;15732;48.534;20.382;2023-07-13T10:08:46;25.00;99.90
28520;DHT22;15732;48.534;20.382;2023-07-13T10:11:27;25.00;99.90
28520;DHT22;15732;48.534;20.382;2023-07-13T10:14:20;25.00;99.90
28520;DHT22;15732;48.534;20.382;2023-07-13T10:16:51;24.90;99.90
28520;DHT22;15732;48.534;20.382;2023-07-13T10:19:23;24.90;99.90
28520;DHT22;15732;48.534;20.382;2023-07-13T10:22:00;24.90;99.90
28520;DHT22;15732;48.534;20.382;2023-07-13T10:24:33;24.90;99.90
28520;DHT22;15732;48.534;20.382;2023-07-13T10:27:12;24.90;99.90
28520;DHT22;15732;48.534;20.382;2023-07-13T10:29:59;24.90;99.90
28520;DHT22;15732;48.534;20.382;2023-07-13T10:32:28;24.90;99.90
28520;DHT22;15732;48.534;20.382;2023-07-13T10:34:55;24.90;99.90
28520;DHT22;15732;48.534;20.382;2023-07-13T10:37:36;24.90;99.90
28520;DHT22;15732;48.534;20.382;2023-07-13T10:40:11;25.00;99.90
28520;DHT22;15732;48.534;20.382;2023-07-13T10:42:44;25.00;99.90
28520;DHT22;15732;48.534;20.382;2023-07-13T10:45:19;25.00;99.90
28520;DHT22;15732;48.534;20.382;2023-07-13T10:47:54;25.10;99.90
28520;DHT22;15732;48.534;20.382;2023-07-13T10:50:29;25.00;99.90
28520;DHT22;15732;48.534;20.382;2023-07-13T10:53:28;25.10;99.90
28520;DHT22;15732;48.534;20.382;2023-07-13T10:58:28;25.00;99.90
28520;DHT22;15732;48.534;20.382;2023-07-13T11:01:08;25.00;99.90
28520;DHT22;15732;48.534;20.382;2023-07-13T11:03:49;25.10;99.90
28520;DHT22;15732;48.534;20.382;2023-07-13T11:21:29;25.00;99.90
28520;DHT22;15732;48.534;20.382;2023-07-13T11:24:17;24.90;99.90
28520;DHT22;15732;48.534;20.382;2023-07-13T11:26:51;24.90;99.90
28520;DHT22;15732;48.534;20.382;2023-07-13T11:32:00;24.90;99.90
28520;DHT22;15732;48.534;20.382;2023-07-13T11:34:35;24.90;99.90
28520;DHT22;15732;48.534;20.382;2023-07-13T11:37:03;24.90;99.90
28520;DHT22;15732;48.534;20.382;2023-07-13T11:39:35;25.00;99.90
28520;DHT22;15732;48.534;20.382;2023-07-13T11:42:05;25.00;99.90
28520;DHT22;15732;48.534;20.382;2023-07-13T11:44:35;25.00;99.90
28520;DHT22;15732;48.534;20.382;2023-07-13T11:47:11;25.10;99.90
28520;DHT22;15732;48.534;20.382;2023-07-13T11:49:45;25.20;99.90
28520;DHT22;15732;48.534;20.382;2023-07-13T11:52:17;25.30;99.90
28520;DHT22;15732;48.534;20.382;2023-07-13T11:54:56;25.40;99.90
28520;DHT22;15732;48.534;20.382;2023-07-13T11:57:47;25.40;99.90
28520;DHT22;15732;48.534;20.382;2023-07-13T12:00:23;25.30;99.90
28520;DHT22;15732;48.534;20.382;2023-07-13T12:02:53;25.40;99.90
28520;DHT22;15732;48.534;20.382;2023-07-13T12:05:24;25.30;99.90
28520;DHT22;15732;48.534;20.382;2023-07-13T12:07:52;25.30;99.90
28520;DHT22;15732;48.534;20.382;2023-07-13T12:10:25;25.20;99.90
28520;DHT22;15732;48.534;20.382;2023-07-13T12:13:03;25.20;99.90
28520;DHT22;15732;48.534;20.382;2023-07-13T12:15:40;25.20;99.90
28520;DHT22;15732;48.534;20.382;2023-07-13T12:18:30;25.10;99.90
28520;DHT22;15732;48.534;20.382;2023-07-13T12:20:58;25.10;99.90
28520;DHT22;15732;48.534;20.382;2023-07-13T12:23:32;25.10;99.90
28520;DHT22;15732;48.534;20.382;2023-07-13T12:26:02;25.10;99.90
28520;DHT22;15732;48.534;20.382;2023-07-13T12:31:31;25.20;99.90
28520;DHT22;15732;48.534;20.382;2023-07-13T12:34:07;25.20;99.90
28520;DHT22;15732;48.534;20.382;2023-07-13T12:36:37;25.30;99.90
28520;DHT22;15732;48.534;20.382;2023-07-13T12:41:52;25.40;99.90
28520;DHT22;15732;48.534;20.382;2023-07-13T12:44:29;25.50;99.90
28520;DHT22;15732;48.534;20.382;2023-07-13T12:47:04;25.60;99.90
28520;DHT22;15732;48.534;20.382;2023-07-13T12:49:33;25.60;99.90
28520;DHT22;15732;48.534;20.382;2023-07-13T12:52:10;25.70;99.90
28520;DHT22;15732;48.534;20.382;2023-07-13T12:54:41;25.70;99.90
28520;DHT22;15732;48.534;20.382;2023-07-13T12:57:16;25.70;99.90
28520;DHT22;15732;48.534;20.382;2023-07-13T12:59:43;25.70;99.90
28520;DHT22;15732;48.534;20.382;2023-07-13T13:04:49;25.70;99.90
28520;DHT22;15732;48.534;20.382;2023-07-13T13:07:17;25.70;99.90
28520;DHT22;15732;48.534;20.382;2023-07-13T13:09:46;25.70;99.90
28520;DHT22;15732;48.534;20.382;2023-07-13T13:12:14;25.70;99.90
28520;DHT22;15732;48.534;20.382;2023-07-13T13:14:42;25.70;99.90
28520;DHT22;15732;48.534;20.382;2023-07-13T13:17:21;25.70;99.90
28520;DHT22;15732;48.534;20.382;2023-07-13T13:19:50;25.70;99.90
28520;DHT22;15732;48.534;20.382;2023-07-13T13:22:21;25.70;99.90
28520;DHT22;15732;48.534;20.382;2023-07-13T13:24:48;25.70;99.90
28520;DHT22;15732;48.534;20.382;2023-07-13T13:27:19;25.70;99.90
28520;DHT22;15732;48.534;20.382;2023-07-13T13:29:47;25.70;99.90
28520;DHT22;15732;48.534;20.382;2023-07-13T13:32:16;25.70;99.90
28520;DHT22;15732;48.534;20.382;2023-07-13T13:34:45;25.70;99.90
28520;DHT22;15732;48.534;20.382;2023-07-13T13:37:20;25.70;99.90
28520;DHT22;15732;48.534;20.382;2023-07-13T13:39:52;25.70;99.90
28520;DHT22;15732;48.534;20.382;2023-07-13T13:42:20;25.70;99.90
28520;DHT22;15732;48.534;20.382;2023-07-13T13:44:49;25.60;99.90
28520;DHT22;15732;48.534;20.382;2023-07-13T13:47:36;25.60;99.90
28520;DHT22;15732;48.534;20.382;2023-07-13T13:50:19;25.60;99.90
28520;DHT22;15732;48.534;20.382;2023-07-13T13:52:48;25.60;99.90
28520;DHT22;15732;48.534;20.382;2023-07-13T13:55:20;25.60;99.90
28520;DHT22;15732;48.534;20.382;2023-07-13T13:58:03;25.60;99.90
28520;DHT22;15732;48.534;20.382;2023-07-13T14:00:36;25.60;99.90
28520;DHT22;15732;48.534;20.382;2023-07-13T14:03:04;25.60;99.90
28520;DHT22;15732;48.534;20.382;2023-07-13T14:05:31;25.60;99.90
28520;DHT22;15732;48.534;20.382;2023-07-13T14:07:58;25.60;99.90
28520;DHT22;15732;48.534;20.382;2023-07-13T14:10:26;25.60;99.90
28520;DHT22;15732;48.534;20.382;2023-07-13T14:12:56;25.70;99.90
28520;DHT22;15732;48.534;20.382;2023-07-13T14:15:28;25.70;99.90
28520;DHT22;15732;48.534;20.382;2023-07-13T14:18:03;25.70;99.90
28520;DHT22;15732;48.534;20.382;2023-07-13T14:20:31;25.70;99.90
28520;DHT22;15732;48.534;20.382;2023-07-13T14:23:02;25.70;99.90
28520;DHT22;15732;48.534;20.382;2023-07-13T14:25:33;25.60;99.90
28520;DHT22;15732;48.534;20.382;2023-07-13T14:28:04;25.50;99.90
28520;DHT22;15732;48.534;20.382;2023-07-13T14:30:36;25.40;99.90
28520;DHT22;15732;48.534;20.382;2023-07-13T14:33:09;25.20;99.90
28520;DHT22;15732;48.534;20.382;2023-07-13T14:35:36;25.00;99.90
28520;DHT22;15732;48.534;20.382;2023-07-13T14:38:05;24.80;99.90
28520;DHT22;15732;48.534;20.382;2023-07-13T14:40:33;24.70;99.90
28520;DHT22;15732;48.534;20.382;2023-07-13T14:43:01;24.50;99.90
28520;DHT22;15732;48.534;20.382;2023-07-13T14:45:28;24.40;99.90
28520;DHT22;15732;48.534;20.382;2023-07-13T14:48:01;24.30;99.90
28520;DHT22;15732;48.534;20.382;2023-07-13T14:50:32;24.20;99.90
28520;DHT22;15732;48.534;20.382;2023-07-13T14:53:01;24.30;99.90
28520;DHT22;15732;48.534;20.382;2023-07-13T14:55:32;24.10;99.90
28520;DHT22;15732;48.534;20.382;2023-07-13T14:57:59;24.00;99.90
28520;DHT22;15732;48.534;20.382;2023-07-13T15:00:27;24.00;99.90
28520;DHT22;15732;48.534;20.382;2023-07-13T15:03:00;23.80;99.90
28520;DHT22;15732;48.534;20.382;2023-07-13T15:05:32;23.80;99.90
28520;DHT22;15732;48.534;20.382;2023-07-13T15:08:02;23.80;99.90
28520;DHT22;15732;48.534;20.382;2023-07-13T15:10:31;23.70;99.90
28520;DHT22;15732;48.534;20.382;2023-07-13T15:13:01;23.80;99.90
28520;DHT22;15732;48.534;20.382;2023-07-13T15:15:34;23.80;99.90
28520;DHT22;15732;48.534;20.382;2023-07-13T15:18:02;23.80;99.90
28520;DHT22;15732;48.534;20.382;2023-07-13T15:20:33;23.80;99.90
28520;DHT22;15732;48.534;20.382;2023-07-13T15:23:04;23.90;99.90
28520;DHT22;15732;48.534;20.382;2023-07-13T15:25:35;23.90;99.90
28520;DHT22;15732;48.534;20.382;2023-07-13T15:28:02;23.90;99.90
28520;DHT22;15732;48.534;20.382;2023-07-13T15:30:31;23.90;99.90
28520;DHT22;15732;48.534;20.382;2023-07-13T15:33:29;24.00;99.90
28520;DHT22;15732;48.534;20.382;2023-07-13T15:35:57;24.10;99.90
28520;DHT22;15732;48.534;20.382;2023-07-13T15:38:29;24.10;99.90
28520;DHT22;15732;48.534;20.382;2023-07-13T15:40:57;24.10;99.90
28520;DHT22;15732;48.534;20.382;2023-07-13T15:43:25;24.10;99.90
28520;DHT22;15732;48.534;20.382;2023-07-13T15:45:52;24.10;99.90
28520;DHT22;15732;48.534;20.382;2023-07-13T15:48:23;24.10;99.90
28520;DHT22;15732;48.534;20.382;2023-07-13T15:50:52;24.10;99.90
28520;DHT22;15732;48.534;20.382;2023-07-13T15:53:39;24.10;99.90
28520;DHT22;15732;48.534;20.382;2023-07-13T15:56:34;24.10;99.90
28520;DHT22;15732;48.534;20.382;2023-07-13T15:59:01;24.10;99.90
28520;DHT22;15732;48.534;20.382;2023-07-13T16:01:30;24.10;99.90
28520;DHT22;15732;48.534;20.382;2023-07-13T16:03:59;24.10;99.90
28520;DHT22;15732;48.534;20.382;2023-07-13T16:06:31;24.10;99.90
28520;DHT22;15732;48.534;20.382;2023-07-13T16:09:03;24.10;99.90
28520;DHT22;15732;48.534;20.382;2023-07-13T16:11:37;24.10;99.90
28520;DHT22;15732;48.534;20.382;2023-07-13T16:14:11;24.10;99.90
28520;DHT22;15732;48.534;20.382;2023-07-13T16:16:40;24.10;99.90
28520;DHT22;15732;48.534;20.382;2023-07-13T16:19:08;24.10;99.90
28520;DHT22;15732;48.534;20.382;2023-07-13T16:21:56;24.10;99.90